AQQ10 IFIS: Internet Flight Information System
logo dgac
Miércoles 05 de Octubre del 2022
Buscar por aerodromo o helipuerto
Ingrese nombre de aeródromo, localidad o designador OACI:
METAR del 05-10-2022 a las 02:00 UTC
Para mayor información visite www.meteochile.cl
METAR SCCY 050200Z AUTO VRB02KT CAVOK 08/04 Q1012
Viento: dirección variable, velocidad 2 nudos
Visibilidad: 10 km o más,
    sin nubes bajo los 5.000 pies o bajo del MSA (Mínimo de Seguridad del Aeródromo),
    sin cumulonimbus, y sin fenómenos de tiempo significativo en el aeródromo o alrededores
Temperatura: 8 °C
Rocío: 4 °C
Humedad_relativa: 76%
Presión: 1012 hPa
METAR del 05-10-2022 a las 01:00 UTC
Para mayor información visite www.meteochile.cl
METAR SCCY 050100Z AUTO VRB02KT 9999 -RA OVC046 08/05 Q1011
Viento: dirección variable, velocidad 2 nudos
Visibilidad: 10 km o más
Débil Lluvia
Nubes: Cubierto a 4600 pies sobre el nivel del aeródromo
Temperatura: 8 °C
Rocío: 5 °C
Humedad_relativa: 81%
Presión: 1011 hPa
METAR del 05-10-2022 a las 00:00 UTC
Para mayor información visite www.meteochile.cl
METAR SCCY 050000Z AUTO VRB02KT 9999 -RA FEW020 OVC047 08/04 Q1011
Viento: dirección variable, velocidad 2 nudos
Visibilidad: 10 km o más
Débil Lluvia
Nubes: Escasa nubosidad a 2000 pies sobre el nivel del aeródromo
Nubes: Cubierto a 4700 pies sobre el nivel del aeródromo
Temperatura: 8 °C
Rocío: 4 °C
Humedad_relativa: 76%
Presión: 1011 hPa
METAR del 04-10-2022 a las 23:00 UTC
Para mayor información visite www.meteochile.cl
METAR SCCY 042300Z VRB04KT 9999 BKN030 09/04 Q1010
Viento: dirección variable, velocidad 4 nudos
Visibilidad: 10 km o más
Nubes: Nublado a 3000 pies sobre el nivel del aeródromo
Temperatura: 9 °C
Rocío: 4 °C
Humedad_relativa: 71%
Presión: 1010 hPa
METAR del 04-10-2022 a las 22:00 UTC
Para mayor información visite www.meteochile.cl
METAR SCCY 042200Z VRB06KT 9999 BKN030 11/02 Q1010
Viento: dirección variable, velocidad 6 nudos
Visibilidad: 10 km o más
Nubes: Nublado a 3000 pies sobre el nivel del aeródromo
Temperatura: 11 °C
Rocío: 2 °C
Humedad_relativa: 54%
Presión: 1010 hPa
METAR del 04-10-2022 a las 21:00 UTC
Para mayor información visite www.meteochile.cl
METAR SCCY 042100Z 24007KT 180V270 9999 BKN030 12/03 Q1009 RESHRA
Viento: dirección 240 grados, velocidad 7 nudos
Viento con dirección variable entre 180 y 270 grados
Visibilidad: 10 km o más
Nubes: Nublado a 3000 pies sobre el nivel del aeródromo
Temperatura: 12 °C
Rocío: 3 °C
Humedad_relativa: 54%
Presión: 1009 hPa
Se observó recientemente ChubascosLluvia
METAR del 04-10-2022 a las 20:00 UTC
Para mayor información visite www.meteochile.cl
METAR SCCY 042000Z 26009KT 190V340 9999 SCT030 12/03 Q1008
Viento: dirección 260 grados, velocidad 9 nudos
Viento con dirección variable entre 190 y 340 grados
Visibilidad: 10 km o más
Nubes: Nubosidad parcial a 3000 pies sobre el nivel del aeródromo
Temperatura: 12 °C
Rocío: 3 °C
Humedad_relativa: 54%
Presión: 1008 hPa
METAR del 04-10-2022 a las 19:00 UTC
Para mayor información visite www.meteochile.cl
METAR SCCY 041900Z 24009KT 190V330 9999 -SHRA BKN030 12/02 Q1007
Viento: dirección 240 grados, velocidad 9 nudos
Viento con dirección variable entre 190 y 330 grados
Visibilidad: 10 km o más
Débil ChubascosLluvia
Nubes: Nublado a 3000 pies sobre el nivel del aeródromo
Temperatura: 12 °C
Rocío: 2 °C
Humedad_relativa: 50%
Presión: 1007 hPa
METAR del 04-10-2022 a las 18:00 UTC
Para mayor información visite www.meteochile.cl
METAR SCCY 041800Z VRB10G23KT 9999 SCT030 14/03 Q1007
Viento: dirección variable, velocidad 10 nudos, con ráfagas de velocidad máxima de 23Nudos
Visibilidad: 10 km o más
Nubes: Nubosidad parcial a 3000 pies sobre el nivel del aeródromo
Temperatura: 14 °C
Rocío: 3 °C
Humedad_relativa: 47%
Presión: 1007 hPa
METAR del 04-10-2022 a las 17:00 UTC
Para mayor información visite www.meteochile.cl
METAR SCCY 041700Z 25011KT 200V330 9999 SCT030 12/02 Q1007
Viento: dirección 250 grados, velocidad 11 nudos
Viento con dirección variable entre 200 y 330 grados
Visibilidad: 10 km o más
Nubes: Nubosidad parcial a 3000 pies sobre el nivel del aeródromo
Temperatura: 12 °C
Rocío: 2 °C
Humedad_relativa: 50%
Presión: 1007 hPa